Terminal Aerodrome Forecast
Issued by NWS Omaha/Valley, NE

Home | Current Version | Previous Version | Text Only | Print | Product List | Glossary On
Versions: 1 2 3 4 5 6 7 8 9 10 11 12 13 14 15 16 17 18 19 20
000
FTUS43 KOAX 050534
TAFLNK
TAF
KLNK 050534Z 0506/0606 17009KT P6SM SCT200
     FM050800 19006KT P6SM SCT150 WS020/22045KT
     FM051700 20010G18KT P6SM BKN200
     FM052100 26009KT P6SM BKN200
     FM060300 33010KT P6SM BKN110=

USA.gov is the U.S. government's official web portal to all federal, state and local government web resources and services.